createdAt,value
2024-03-12T00:01:52.176Z,41.90
2024-03-12T00:06:54.406Z,34.00
2024-03-12T00:11:56.718Z,54.35
2024-03-12T00:17:01.211Z,33.35
2024-03-12T00:22:03.563Z,48.58
2024-03-12T00:27:07.238Z,36.30
2024-03-12T00:32:10.807Z,41.35
2024-03-12T00:37:13.032Z,44.65
2024-03-12T00:42:15.383Z,56.47
2024-03-12T00:47:19.000Z,38.25
2024-03-12T00:52:23.861Z,44.30
2024-03-12T00:57:28.347Z,47.92
2024-03-12T01:02:31.893Z,54.25
2024-03-12T01:07:35.196Z,55.30
2024-03-12T01:12:39.188Z,89.43
2024-03-12T01:17:43.614Z,62.63
2024-03-12T01:22:46.082Z,53.30
2024-03-12T01:27:48.757Z,61.60
2024-03-12T01:32:52.775Z,90.50
2024-03-12T01:37:58.194Z,72.00
2024-03-12T01:43:10.625Z,64.47
2024-03-12T01:48:14.426Z,69.00
2024-03-12T01:53:17.587Z,59.20
2024-03-12T01:58:19.935Z,48.65
2024-03-12T02:08:26.361Z,56.22
2024-03-12T02:13:28.553Z,47.55
2024-03-12T02:18:34.229Z,40.45
2024-03-12T02:23:38.855Z,55.97
2024-03-12T02:28:41.135Z,64.70
2024-03-12T02:33:43.564Z,67.30
2024-03-12T02:38:47.255Z,50.75
2024-03-12T02:43:49.521Z,70.43
2024-03-12T02:48:54.590Z,49.45
2024-03-12T02:53:58.226Z,65.32
2024-03-12T02:59:00.460Z,34.60
2024-03-12T03:04:03.393Z,83.50
2024-03-12T03:14:09.121Z,82.78
2024-03-12T03:19:11.693Z,59.53
2024-03-12T03:24:15.352Z,52.63
2024-03-12T03:29:17.614Z,58.33
2024-03-12T03:34:19.815Z,71.90
2024-03-12T03:39:25.604Z,72.63
2024-03-12T03:44:29.352Z,54.42
2024-03-12T03:49:31.718Z,67.00
2024-03-12T03:54:35.304Z,58.05
2024-03-12T03:59:37.484Z,58.10
2024-03-12T04:04:39.693Z,48.85
2024-03-12T04:09:43.464Z,57.38
2024-03-12T04:14:45.662Z,76.10
2024-03-12T04:19:49.142Z,66.63
2024-03-12T04:24:52.636Z,78.28
2024-03-12T04:29:54.791Z,64.15
2024-03-12T04:34:56.902Z,76.63
2024-03-12T04:40:00.785Z,75.97
2024-03-12T04:45:05.837Z,60.47
2024-03-12T04:50:09.550Z,69.90
2024-03-12T04:55:14.761Z,46.40
2024-03-12T05:00:21.080Z,59.47
2024-03-12T05:05:24.759Z,52.20
2024-03-12T05:10:28.470Z,75.57
2024-03-12T05:15:30.750Z,56.92
2024-03-12T05:20:34.857Z,62.35
2024-03-12T05:25:41.670Z,41.90
2024-03-12T05:30:44.157Z,80.32
2024-03-12T05:35:50.841Z,54.30
2024-03-12T05:41:09.926Z,53.90
2024-03-12T05:46:31.190Z,62.47
2024-03-12T05:51:36.165Z,54.60
2024-03-12T05:56:40.702Z,45.05
2024-03-12T06:01:43.112Z,60.50
2024-03-12T06:06:45.512Z,50.25
2024-03-12T06:11:49.051Z,47.70
2024-03-12T06:16:51.316Z,45.28
2024-03-12T06:21:53.493Z,39.38
2024-03-12T06:26:57.567Z,48.60
2024-03-12T06:32:00.476Z,53.35
2024-03-12T06:37:04.176Z,50.65
2024-03-12T06:42:08.817Z,67.28
2024-03-12T06:47:11.573Z,46.30
2024-03-12T06:52:13.814Z,40.63
2024-03-12T06:57:21.185Z,43.70
2024-03-12T07:02:23.540Z,43.88
2024-03-12T07:07:26.663Z,52.33
2024-03-12T07:12:31.661Z,46.92
2024-03-12T07:17:34.558Z,38.92
2024-03-12T07:27:41.506Z,42.70
2024-03-12T07:32:43.789Z,48.47
2024-03-12T07:37:47.283Z,30.33
2024-03-12T07:42:51.062Z,35.75
2024-03-12T07:47:53.495Z,44.47
2024-03-12T07:52:57.049Z,38.45
2024-03-12T07:58:02.457Z,34.40
2024-03-12T08:03:04.970Z,44.40
2024-03-12T08:08:08.883Z,45.15
2024-03-12T08:13:12.601Z,44.28
2024-03-12T08:18:20.547Z,40.85
2024-03-12T08:28:29.211Z,55.15
2024-03-12T08:33:31.556Z,26.98
2024-03-12T08:38:34.427Z,64.10
2024-03-12T08:43:38.230Z,46.17
2024-03-12T08:48:40.522Z,36.83
2024-03-12T08:53:42.745Z,34.40
2024-03-12T08:58:46.310Z,70.40
2024-03-12T09:03:48.602Z,55.38
2024-03-12T09:08:51.918Z,76.18
2024-03-12T09:13:55.542Z,66.07
2024-03-12T09:18:57.746Z,46.42
2024-03-12T09:24:02.249Z,52.47
2024-03-12T09:29:09.073Z,64.45
2024-03-12T09:34:12.088Z,58.10
2024-03-12T09:39:14.541Z,61.58
2024-03-12T09:44:18.091Z,54.60
2024-03-12T09:49:20.527Z,46.30
2024-03-12T09:54:24.940Z,55.95
2024-03-12T09:59:28.434Z,82.45
2024-03-12T10:04:30.854Z,88.35
2024-03-12T10:09:33.222Z,70.20
2024-03-12T10:14:36.781Z,60.58
2024-03-12T10:19:39.065Z,55.25
2024-03-12T10:24:41.213Z,53.53
2024-03-12T10:29:44.906Z,56.55
2024-03-12T10:34:48.147Z,48.53
2024-03-12T10:39:50.400Z,56.80
2024-03-12T10:44:53.886Z,62.28
2024-03-12T10:49:57.811Z,57.05
2024-03-12T10:55:05.838Z,49.60
2024-03-12T11:00:21.830Z,60.03
2024-03-12T11:05:28.952Z,52.42
2024-03-12T11:10:33.813Z,64.22
2024-03-12T11:15:37.800Z,58.63
2024-03-12T11:20:41.166Z,54.42
2024-03-12T11:25:46.992Z,40.08
2024-03-12T11:31:05.580Z,55.95
2024-03-12T11:36:09.911Z,42.30
2024-03-12T11:41:12.611Z,48.33
2024-03-12T11:46:22.153Z,38.38
2024-03-12T11:51:24.503Z,38.13
2024-03-12T11:56:28.606Z,47.55
2024-03-12T12:01:33.826Z,49.42
2024-03-12T12:06:37.436Z,41.67
2024-03-12T12:11:41.788Z,38.20
2024-03-12T12:16:45.591Z,35.90
2024-03-12T12:21:47.851Z,32.42
2024-03-12T12:26:50.229Z,35.88
2024-03-12T12:31:54.501Z,30.70
2024-03-12T12:36:57.362Z,29.15
2024-03-12T12:47:05.931Z,21.25
2024-03-12T12:52:08.661Z,25.63
2024-03-12T12:57:11.940Z,29.13
2024-03-12T13:02:19.847Z,27.30
2024-03-12T13:07:33.028Z,25.25
2024-03-12T13:12:36.217Z,26.35
2024-03-12T13:17:40.844Z,32.53
2024-03-12T13:22:44.963Z,30.92
2024-03-12T13:27:47.554Z,30.58
2024-03-12T13:32:52.348Z,28.00
2024-03-12T13:37:54.524Z,24.35
2024-03-12T13:42:57.404Z,28.50
2024-03-12T13:48:01.226Z,46.03
2024-03-12T13:53:04.595Z,43.95
2024-03-12T13:58:08.434Z,33.38
2024-03-12T14:03:12.573Z,38.97
2024-03-12T14:08:15.404Z,39.85
2024-03-12T14:13:20.293Z,42.00
2024-03-12T14:18:24.632Z,42.65
2024-03-12T14:23:27.726Z,32.00
2024-03-12T14:28:31.074Z,34.50
2024-03-12T14:33:34.774Z,39.25
2024-03-12T14:38:37.006Z,33.10
2024-03-12T14:43:39.687Z,30.30
2024-03-12T14:48:43.301Z,29.42
2024-03-12T14:53:45.656Z,31.98
2024-03-12T14:58:47.915Z,25.83
2024-03-12T15:03:51.582Z,34.92
2024-03-12T15:08:55.465Z,32.28
2024-03-12T15:13:57.629Z,38.03
2024-03-12T15:19:01.169Z,38.38
2024-03-12T15:24:03.697Z,36.15
2024-03-12T15:29:06.062Z,35.03
2024-03-12T15:34:09.715Z,27.48
2024-03-12T15:39:12.068Z,26.65
2024-03-12T15:44:14.582Z,28.92
2024-03-12T15:49:18.850Z,35.38
2024-03-12T15:54:21.130Z,37.08
2024-03-12T15:59:23.382Z,30.77
2024-03-12T16:04:27.045Z,24.58
2024-03-12T16:09:30.595Z,29.10
2024-03-12T16:14:32.817Z,18.65
2024-03-12T16:19:37.008Z,26.30
2024-03-12T16:24:39.181Z,21.67
2024-03-12T16:29:41.459Z,22.58
2024-03-12T16:34:46.438Z,22.48
2024-03-12T16:39:48.801Z,20.10
2024-03-12T16:44:52.961Z,19.63
2024-03-12T16:49:56.462Z,18.65
2024-03-12T16:54:59.618Z,16.95
2024-03-12T17:05:06.983Z,21.75
2024-03-12T17:10:10.034Z,25.67
2024-03-12T17:20:19.114Z,27.33
2024-03-12T17:25:21.880Z,25.65
2024-03-12T17:30:25.821Z,35.40
2024-03-12T17:35:31.164Z,27.48
2024-03-12T17:40:34.095Z,27.77
2024-03-12T17:45:37.072Z,21.60
2024-03-12T17:50:41.285Z,37.75
2024-03-12T17:55:47.152Z,30.65
2024-03-12T18:00:51.975Z,25.60
2024-03-12T18:05:58.012Z,28.00
2024-03-12T18:11:01.781Z,23.35
2024-03-12T18:16:04.660Z,17.77
2024-03-12T18:21:11.831Z,26.38
2024-03-12T18:26:14.102Z,27.52
2024-03-12T18:31:16.679Z,19.77
2024-03-12T18:36:20.543Z,20.25
2024-03-12T18:41:22.947Z,16.08
2024-03-12T18:46:25.294Z,23.27
2024-03-12T18:51:29.679Z,17.15
2024-03-12T18:56:32.429Z,22.23
2024-03-12T19:01:37.426Z,18.55
2024-03-12T19:06:42.779Z,10.70
2024-03-12T19:11:45.504Z,29.83
2024-03-12T19:16:52.535Z,18.67
2024-03-12T19:21:57.045Z,20.90
2024-03-12T19:26:59.344Z,15.55
2024-03-12T19:32:03.993Z,19.55
2024-03-12T19:37:08.728Z,21.45
2024-03-12T19:42:12.844Z,20.85
2024-03-12T19:47:16.844Z,13.13
2024-03-12T19:52:20.725Z,21.02
2024-03-12T19:57:23.045Z,14.50
2024-03-12T20:02:26.641Z,10.55
2024-03-12T20:07:30.893Z,17.10
2024-03-12T20:12:33.119Z,16.83
2024-03-12T20:17:35.283Z,19.25
2024-03-12T20:22:40.336Z,19.23
2024-03-12T20:27:42.663Z,20.00
2024-03-12T20:32:45.469Z,12.73
2024-03-12T20:37:49.186Z,19.88
2024-03-12T20:42:51.422Z,22.10
2024-03-12T20:47:53.756Z,17.13
2024-03-12T20:52:57.398Z,16.95
2024-03-12T20:58:00.205Z,14.57
2024-03-12T21:03:02.534Z,15.73
2024-03-12T21:08:08.357Z,19.30
2024-03-12T21:13:12.435Z,21.67
2024-03-12T21:18:16.181Z,25.55
2024-03-12T21:23:19.845Z,16.70
2024-03-12T21:28:22.509Z,27.92
2024-03-12T21:33:25.821Z,22.58
2024-03-12T21:38:29.999Z,30.60
2024-03-12T21:43:32.173Z,18.08
2024-03-12T21:48:34.314Z,18.00
2024-03-12T21:53:37.986Z,19.25
2024-03-12T21:58:48.553Z,21.17
2024-03-12T22:03:51.770Z,18.77
2024-03-12T22:13:58.624Z,13.73
2024-03-12T22:19:05.328Z,18.80
2024-03-12T22:24:14.205Z,18.77
2024-03-12T22:29:16.424Z,20.05
2024-03-12T22:34:18.824Z,19.55
2024-03-12T22:39:24.071Z,16.92
2024-03-12T22:44:26.840Z,15.38
2024-03-12T22:49:29.254Z,18.27
2024-03-12T22:54:33.836Z,10.23
2024-03-12T22:59:36.606Z,16.63
2024-03-12T23:04:41.027Z,21.77
2024-03-12T23:09:45.112Z,13.90
2024-03-12T23:14:50.025Z,16.55
2024-03-12T23:19:52.085Z,11.88
2024-03-12T23:24:55.800Z,12.93
2024-03-12T23:30:01.188Z,12.68
2024-03-12T23:35:03.571Z,13.10
2024-03-12T23:40:08.444Z,18.13
2024-03-12T23:45:11.116Z,16.60
2024-03-12T23:50:13.377Z,26.80
2024-03-12T23:55:17.036Z,12.95
